sensor_id;sensor_type;location;lat;lon;timestamp;P1;durP1;ratioP1;P2;durP2;ratioP2
47539;SDS011;33280;52.152;21.052;2023-07-30T03:24:40;13.07;;;7.97;;
47539;SDS011;33280;52.152;21.052;2023-07-30T03:27:40;12.63;;;8.83;;
47539;SDS011;33280;52.152;21.052;2023-07-30T03:30:23;10.33;;;8.53;;
47539;SDS011;33280;52.152;21.052;2023-07-30T03:36:34;12.20;;;8.60;;
47539;SDS011;33280;52.152;21.052;2023-07-30T03:39:14;14.00;;;9.37;;
47539;SDS011;33280;52.152;21.052;2023-07-30T03:41:46;15.57;;;9.00;;
47539;SDS011;33280;52.152;21.052;2023-07-30T03:44:24;10.17;;;8.60;;
47539;SDS011;33280;52.152;21.052;2023-07-30T03:47:02;12.23;;;8.83;;
47539;SDS011;33280;52.152;21.052;2023-07-30T03:49:43;12.37;;;9.13;;
47539;SDS011;33280;52.152;21.052;2023-07-30T03:52:18;12.67;;;8.53;;
47539;SDS011;33280;52.152;21.052;2023-07-30T03:54:54;11.43;;;8.20;;
47539;SDS011;33280;52.152;21.052;2023-07-30T03:57:25;11.53;;;9.13;;
47539;SDS011;33280;52.152;21.052;2023-07-30T03:59:59;10.87;;;8.77;;
47539;SDS011;33280;52.152;21.052;2023-07-30T04:02:38;9.97;;;8.17;;
47539;SDS011;33280;52.152;21.052;2023-07-30T04:05:11;10.33;;;8.40;;
47539;SDS011;33280;52.152;21.052;2023-07-30T04:08:13;14.40;;;8.70;;
47539;SDS011;33280;52.152;21.052;2023-07-30T04:10:59;13.07;;;8.37;;
47539;SDS011;33280;52.152;21.052;2023-07-30T04:13:57;10.87;;;7.67;;
47539;SDS011;33280;52.152;21.052;2023-07-30T04:16:41;11.07;;;8.53;;
47539;SDS011;33280;52.152;21.052;2023-07-30T04:19:26;12.23;;;8.07;;
47539;SDS011;33280;52.152;21.052;2023-07-30T04:22:06;12.00;;;8.43;;
47539;SDS011;33280;52.152;21.052;2023-07-30T04:24:41;17.27;;;8.83;;
47539;SDS011;33280;52.152;21.052;2023-07-30T04:27:34;11.20;;;8.10;;
47539;SDS011;33280;52.152;21.052;2023-07-30T04:30:11;13.60;;;8.10;;
47539;SDS011;33280;52.152;21.052;2023-07-30T04:33:28;12.17;;;8.77;;
47539;SDS011;33280;52.152;21.052;2023-07-30T04:36:06;12.27;;;8.40;;
47539;SDS011;33280;52.152;21.052;2023-07-30T04:38:47;11.03;;;7.33;;
47539;SDS011;33280;52.152;21.052;2023-07-30T04:41:28;8.80;;;6.93;;
47539;SDS011;33280;52.152;21.052;2023-07-30T04:44:19;9.60;;;7.10;;
47539;SDS011;33280;52.152;21.052;2023-07-30T04:46:52;12.63;;;7.43;;
47539;SDS011;33280;52.152;21.052;2023-07-30T04:49:29;10.30;;;7.40;;
47539;SDS011;33280;52.152;21.052;2023-07-30T04:52:07;9.60;;;7.13;;
47539;SDS011;33280;52.152;21.052;2023-07-30T04:54:45;10.30;;;6.90;;
47539;SDS011;33280;52.152;21.052;2023-07-30T04:57:13;9.00;;;6.90;;
47539;SDS011;33280;52.152;21.052;2023-07-30T04:59:40;10.47;;;7.07;;
47539;SDS011;33280;52.152;21.052;2023-07-30T05:02:11;11.57;;;7.63;;
47539;SDS011;33280;52.152;21.052;2023-07-30T05:04:41;9.63;;;6.90;;
47539;SDS011;33280;52.152;21.052;2023-07-30T05:07:11;10.33;;;5.90;;
47539;SDS011;33280;52.152;21.052;2023-07-30T05:09:47;9.07;;;6.20;;
47539;SDS011;33280;52.152;21.052;2023-07-30T05:12:28;8.23;;;5.60;;
47539;SDS011;33280;52.152;21.052;2023-07-30T05:15:01;7.70;;;4.90;;
47539;SDS011;33280;52.152;21.052;2023-07-30T05:17:33;6.37;;;4.97;;
47539;SDS011;33280;52.152;21.052;2023-07-30T05:20:19;8.77;;;5.57;;
47539;SDS011;33280;52.152;21.052;2023-07-30T05:22:53;5.63;;;4.50;;
47539;SDS011;33280;52.152;21.052;2023-07-30T05:25:30;7.03;;;4.80;;
47539;SDS011;33280;52.152;21.052;2023-07-30T05:28:12;6.50;;;4.50;;
47539;SDS011;33280;52.152;21.052;2023-07-30T05:30:56;11.53;;;5.20;;
47539;SDS011;33280;52.152;21.052;2023-07-30T05:33:30;6.13;;;4.80;;
47539;SDS011;33280;52.152;21.052;2023-07-30T06:45:49;8.53;;;6.27;;
47539;SDS011;33280;52.152;21.052;2023-07-30T06:48:38;9.10;;;6.20;;
47539;SDS011;33280;52.152;21.052;2023-07-30T06:51:23;8.13;;;5.97;;
47539;SDS011;33280;52.152;21.052;2023-07-30T06:53:54;8.40;;;6.17;;
47539;SDS011;33280;52.152;21.052;2023-07-30T06:56:23;8.13;;;5.23;;
47539;SDS011;33280;52.152;21.052;2023-07-30T09:33:24;7.18;;;4.00;;
47539;SDS011;33280;52.152;21.052;2023-07-30T09:38:06;5.10;;;3.77;;
47539;SDS011;33280;52.152;21.052;2023-07-30T09:41:42;4.93;;;3.83;;
47539;SDS011;33280;52.152;21.052;2023-07-30T09:47:32;7.07;;;3.50;;
47539;SDS011;33280;52.152;21.052;2023-07-30T09:50:20;5.53;;;3.55;;
47539;SDS011;33280;52.152;21.052;2023-07-30T10:05:35;4.70;;;3.13;;
47539;SDS011;33280;52.152;21.052;2023-07-30T10:09:00;4.13;;;2.78;;
47539;SDS011;33280;52.152;21.052;2023-07-30T10:11:51;3.40;;;2.75;;
47539;SDS011;33280;52.152;21.052;2023-07-30T10:15:18;4.15;;;2.92;;
47539;SDS011;33280;52.152;21.052;2023-07-30T10:17:48;4.65;;;3.00;;
47539;SDS011;33280;52.152;21.052;2023-07-30T10:26:43;3.70;;;2.97;;
47539;SDS011;33280;52.152;21.052;2023-07-30T10:37:05;4.55;;;3.55;;
47539;SDS011;33280;52.152;21.052;2023-07-30T10:57:51;3.28;;;2.97;;
47539;SDS011;33280;52.152;21.052;2023-07-30T11:03:03;5.25;;;3.55;;
47539;SDS011;33280;52.152;21.052;2023-07-30T15:13:43;4.10;;;2.80;;
47539;SDS011;33280;52.152;21.052;2023-07-30T15:16:10;3.08;;;2.78;;
47539;SDS011;33280;52.152;21.052;2023-07-30T15:18:37;3.40;;;2.80;;
47539;SDS011;33280;52.152;21.052;2023-07-30T15:21:04;6.53;;;3.13;;
47539;SDS011;33280;52.152;21.052;2023-07-30T15:23:31;4.60;;;3.05;;
47539;SDS011;33280;52.152;21.052;2023-07-30T15:25:58;6.15;;;3.05;;
47539;SDS011;33280;52.152;21.052;2023-07-30T15:28:25;6.20;;;3.35;;
47539;SDS011;33280;52.152;21.052;2023-07-30T15:30:52;8.32;;;3.10;;
47539;SDS011;33280;52.152;21.052;2023-07-30T15:33:19;3.67;;;2.90;;
47539;SDS011;33280;52.152;21.052;2023-07-30T15:35:47;3.10;;;2.80;;
47539;SDS011;33280;52.152;21.052;2023-07-30T15:38:14;3.65;;;3.25;;
47539;SDS011;33280;52.152;21.052;2023-07-30T15:40:41;6.03;;;3.30;;
47539;SDS011;33280;52.152;21.052;2023-07-30T15:43:11;4.30;;;3.28;;
47539;SDS011;33280;52.152;21.052;2023-07-30T15:45:39;3.92;;;3.25;;
47539;SDS011;33280;52.152;21.052;2023-07-30T15:48:09;3.40;;;3.10;;
47539;SDS011;33280;52.152;21.052;2023-07-30T15:50:37;4.75;;;2.90;;
47539;SDS011;33280;52.152;21.052;2023-07-30T15:53:04;4.28;;;3.03;;
47539;SDS011;33280;52.152;21.052;2023-07-30T15:55:34;3.20;;;2.67;;
47539;SDS011;33280;52.152;21.052;2023-07-30T15:58:02;7.07;;;3.15;;
47539;SDS011;33280;52.152;21.052;2023-07-30T16:00:29;5.32;;;3.15;;
47539;SDS011;33280;52.152;21.052;2023-07-30T16:02:56;3.10;;;2.80;;
47539;SDS011;33280;52.152;21.052;2023-07-30T16:05:23;5.28;;;2.90;;
47539;SDS011;33280;52.152;21.052;2023-07-30T16:07:50;3.22;;;2.78;;
47539;SDS011;33280;52.152;21.052;2023-07-30T16:10:17;2.80;;;2.58;;
47539;SDS011;33280;52.152;21.052;2023-07-30T16:12:44;4.28;;;2.83;;
47539;SDS011;33280;52.152;21.052;2023-07-30T16:15:11;3.83;;;2.72;;
47539;SDS011;33280;52.152;21.052;2023-07-30T16:17:39;4.28;;;2.67;;
47539;SDS011;33280;52.152;21.052;2023-07-30T16:20:06;3.45;;;2.60;;
47539;SDS011;33280;52.152;21.052;2023-07-30T16:22:35;3.22;;;2.90;;
47539;SDS011;33280;52.152;21.052;2023-07-30T16:25:03;4.45;;;2.88;;
47539;SDS011;33280;52.152;21.052;2023-07-30T16:27:34;4.45;;;2.92;;
47539;SDS011;33280;52.152;21.052;2023-07-30T16:30:01;4.57;;;2.90;;
47539;SDS011;33280;52.152;21.052;2023-07-30T16:32:30;3.53;;;2.80;;
47539;SDS011;33280;52.152;21.052;2023-07-30T16:34:57;3.10;;;2.80;;
47539;SDS011;33280;52.152;21.052;2023-07-30T16:37:24;4.43;;;2.70;;
47539;SDS011;33280;52.152;21.052;2023-07-30T16:39:51;7.82;;;3.42;;
47539;SDS011;33280;52.152;21.052;2023-07-30T16:42:19;3.38;;;3.08;;
47539;SDS011;33280;52.152;21.052;2023-07-30T16:44:47;3.35;;;3.05;;
47539;SDS011;33280;52.152;21.052;2023-07-30T16:47:14;4.03;;;3.00;;
47539;SDS011;33280;52.152;21.052;2023-07-30T16:49:41;4.50;;;2.97;;
47539;SDS011;33280;52.152;21.052;2023-07-30T16:52:08;5.43;;;3.15;;
47539;SDS011;33280;52.152;21.052;2023-07-30T16:54:35;4.22;;;3.20;;
47539;SDS011;33280;52.152;21.052;2023-07-30T16:57:03;4.70;;;3.60;;
47539;SDS011;33280;52.152;21.052;2023-07-30T16:59:30;5.00;;;3.15;;
47539;SDS011;33280;52.152;21.052;2023-07-30T17:01:57;4.00;;;3.50;;
47539;SDS011;33280;52.152;21.052;2023-07-30T17:04:26;3.67;;;2.92;;
47539;SDS011;33280;52.152;21.052;2023-07-30T17:06:53;4.40;;;3.50;;
47539;SDS011;33280;52.152;21.052;2023-07-30T17:09:20;3.42;;;3.10;;
47539;SDS011;33280;52.152;21.052;2023-07-30T17:11:48;3.83;;;3.42;;
47539;SDS011;33280;52.152;21.052;2023-07-30T17:14:15;3.55;;;3.13;;
47539;SDS011;33280;52.152;21.052;2023-07-30T17:16:42;6.97;;;3.20;;
47539;SDS011;33280;52.152;21.052;2023-07-30T17:19:09;3.40;;;3.10;;
47539;SDS011;33280;52.152;21.052;2023-07-30T17:21:37;3.65;;;3.28;;
47539;SDS011;33280;52.152;21.052;2023-07-30T17:24:04;8.88;;;4.00;;
47539;SDS011;33280;52.152;21.052;2023-07-30T17:26:31;4.00;;;3.60;;
47539;SDS011;33280;52.152;21.052;2023-07-30T17:28:58;4.05;;;3.22;;
47539;SDS011;33280;52.152;21.052;2023-07-30T17:31:25;8.25;;;3.58;;
47539;SDS011;33280;52.152;21.052;2023-07-30T17:33:52;4.80;;;3.50;;
47539;SDS011;33280;52.152;21.052;2023-07-30T17:36:23;3.88;;;3.30;;
47539;SDS011;33280;52.152;21.052;2023-07-30T17:38:50;5.28;;;3.60;;
47539;SDS011;33280;52.152;21.052;2023-07-30T17:41:17;3.78;;;3.28;;
47539;SDS011;33280;52.152;21.052;2023-07-30T17:43:44;3.83;;;3.17;;
47539;SDS011;33280;52.152;21.052;2023-07-30T17:46:11;7.47;;;3.95;;
47539;SDS011;33280;52.152;21.052;2023-07-30T17:48:38;4.53;;;3.55;;
47539;SDS011;33280;52.152;21.052;2023-07-30T17:51:12;5.25;;;3.70;;
47539;SDS011;33280;52.152;21.052;2023-07-30T17:53:43;4.50;;;3.20;;
47539;SDS011;33280;52.152;21.052;2023-07-30T17:56:10;4.77;;;3.47;;
47539;SDS011;33280;52.152;21.052;2023-07-30T17:58:37;5.15;;;3.50;;
47539;SDS011;33280;52.152;21.052;2023-07-30T18:01:05;4.57;;;3.33;;
47539;SDS011;33280;52.152;21.052;2023-07-30T18:03:33;4.80;;;3.70;;
47539;SDS011;33280;52.152;21.052;2023-07-30T18:06:01;5.07;;;3.65;;
47539;SDS011;33280;52.152;21.052;2023-07-30T18:08:29;5.43;;;3.67;;
47539;SDS011;33280;52.152;21.052;2023-07-30T18:10:56;3.70;;;3.40;;
47539;SDS011;33280;52.152;21.052;2023-07-30T18:13:23;4.75;;;3.72;;
47539;SDS011;33280;52.152;21.052;2023-07-30T18:15:51;5.32;;;3.80;;
47539;SDS011;33280;52.152;21.052;2023-07-30T18:18:18;6.43;;;3.60;;
47539;SDS011;33280;52.152;21.052;2023-07-30T18:20:46;7.07;;;4.25;;
47539;SDS011;33280;52.152;21.052;2023-07-30T18:23:13;5.00;;;3.88;;
47539;SDS011;33280;52.152;21.052;2023-07-30T18:25:40;5.32;;;4.03;;
47539;SDS011;33280;52.152;21.052;2023-07-30T18:28:07;6.57;;;3.88;;
47539;SDS011;33280;52.152;21.052;2023-07-30T18:30:37;5.32;;;4.07;;
47539;SDS011;33280;52.152;21.052;2023-07-30T18:33:05;4.60;;;4.10;;
47539;SDS011;33280;52.152;21.052;2023-07-30T18:35:36;5.23;;;4.10;;
47539;SDS011;33280;52.152;21.052;2023-07-30T18:38:04;5.00;;;4.10;;
47539;SDS011;33280;52.152;21.052;2023-07-30T18:40:34;5.28;;;4.20;;
47539;SDS011;33280;52.152;21.052;2023-07-30T18:43:02;4.97;;;4.22;;
47539;SDS011;33280;52.152;21.052;2023-07-30T18:45:30;4.63;;;4.13;;
47539;SDS011;33280;52.152;21.052;2023-07-30T18:48:01;5.00;;;3.60;;
47539;SDS011;33280;52.152;21.052;2023-07-30T18:50:29;5.50;;;4.00;;
47539;SDS011;33280;52.152;21.052;2023-07-30T18:52:57;4.70;;;4.00;;
47539;SDS011;33280;52.152;21.052;2023-07-30T18:55:24;5.17;;;4.30;;
47539;SDS011;33280;52.152;21.052;2023-07-30T18:57:51;4.93;;;4.40;;
47539;SDS011;33280;52.152;21.052;2023-07-30T19:00:18;6.13;;;4.00;;
47539;SDS011;33280;52.152;21.052;2023-07-30T19:02:45;5.95;;;4.10;;
47539;SDS011;33280;52.152;21.052;2023-07-30T19:05:12;5.05;;;4.10;;
47539;SDS011;33280;52.152;21.052;2023-07-30T19:07:39;5.10;;;4.10;;
47539;SDS011;33280;52.152;21.052;2023-07-30T19:10:07;4.83;;;4.20;;
47539;SDS011;33280;52.152;21.052;2023-07-30T19:12:34;6.70;;;4.47;;
47539;SDS011;33280;52.152;21.052;2023-07-30T19:15:01;6.73;;;4.17;;
47539;SDS011;33280;52.152;21.052;2023-07-30T19:17:29;10.57;;;4.93;;
47539;SDS011;33280;52.152;21.052;2023-07-30T19:19:56;6.93;;;4.50;;
47539;SDS011;33280;52.152;21.052;2023-07-30T19:22:23;7.03;;;4.53;;
47539;SDS011;33280;52.152;21.052;2023-07-30T19:24:50;5.57;;;4.40;;
47539;SDS011;33280;52.152;21.052;2023-07-30T19:27:17;5.97;;;4.33;;
47539;SDS011;33280;52.152;21.052;2023-07-30T19:29:44;6.13;;;4.23;;
47539;SDS011;33280;52.152;21.052;2023-07-30T19:32:11;5.13;;;4.00;;
47539;SDS011;33280;52.152;21.052;2023-07-30T19:34:38;6.37;;;4.20;;
47539;SDS011;33280;52.152;21.052;2023-07-30T19:37:05;5.10;;;4.60;;
47539;SDS011;33280;52.152;21.052;2023-07-30T19:39:32;5.03;;;4.37;;
47539;SDS011;33280;52.152;21.052;2023-07-30T19:41:59;7.77;;;4.57;;
47539;SDS011;33280;52.152;21.052;2023-07-30T19:44:28;5.97;;;4.37;;
47539;SDS011;33280;52.152;21.052;2023-07-30T19:46:55;5.33;;;4.43;;
47539;SDS011;33280;52.152;21.052;2023-07-30T19:49:23;5.33;;;4.33;;
47539;SDS011;33280;52.152;21.052;2023-07-30T19:51:51;5.60;;;4.57;;
47539;SDS011;33280;52.152;21.052;2023-07-30T19:54:18;5.70;;;4.20;;
47539;SDS011;33280;52.152;21.052;2023-07-30T19:56:45;7.97;;;4.90;;
47539;SDS011;33280;52.152;21.052;2023-07-30T19:59:12;7.07;;;4.80;;
47539;SDS011;33280;52.152;21.052;2023-07-30T20:01:39;6.23;;;4.90;;
47539;SDS011;33280;52.152;21.052;2023-07-30T20:04:06;6.27;;;4.53;;
47539;SDS011;33280;52.152;21.052;2023-07-30T20:06:33;5.10;;;4.43;;
47539;SDS011;33280;52.152;21.052;2023-07-30T20:09:00;6.47;;;4.47;;
47539;SDS011;33280;52.152;21.052;2023-07-30T20:11:29;7.83;;;4.50;;
47539;SDS011;33280;52.152;21.052;2023-07-30T20:13:56;7.93;;;4.83;;
47539;SDS011;33280;52.152;21.052;2023-07-30T20:16:23;5.63;;;4.33;;
47539;SDS011;33280;52.152;21.052;2023-07-30T20:18:50;5.87;;;4.80;;
47539;SDS011;33280;52.152;21.052;2023-07-30T20:21:17;5.30;;;4.37;;
47539;SDS011;33280;52.152;21.052;2023-07-30T20:23:44;6.73;;;4.47;;
47539;SDS011;33280;52.152;21.052;2023-07-30T20:28:41;6.77;;;4.60;;
47539;SDS011;33280;52.152;21.052;2023-07-30T20:31:09;10.00;;;5.53;;
47539;SDS011;33280;52.152;21.052;2023-07-30T20:33:36;7.13;;;4.97;;
47539;SDS011;33280;52.152;21.052;2023-07-30T20:36:03;6.67;;;4.40;;
47539;SDS011;33280;52.152;21.052;2023-07-30T20:38:30;6.30;;;4.47;;
47539;SDS011;33280;52.152;21.052;2023-07-30T20:40:58;8.03;;;4.67;;
47539;SDS011;33280;52.152;21.052;2023-07-30T20:43:25;6.57;;;4.47;;
47539;SDS011;33280;52.152;21.052;2023-07-30T20:45:53;5.30;;;4.40;;
47539;SDS011;33280;52.152;21.052;2023-07-30T20:48:21;5.00;;;4.50;;
47539;SDS011;33280;52.152;21.052;2023-07-30T20:50:48;7.77;;;5.20;;
47539;SDS011;33280;52.152;21.052;2023-07-30T20:53:16;5.93;;;4.93;;
47539;SDS011;33280;52.152;21.052;2023-07-30T20:55:43;6.10;;;4.73;;
47539;SDS011;33280;52.152;21.052;2023-07-30T20:58:10;8.93;;;4.60;;
47539;SDS011;33280;52.152;21.052;2023-07-30T21:00:37;8.13;;;5.03;;
47539;SDS011;33280;52.152;21.052;2023-07-30T21:03:05;7.90;;;4.87;;
47539;SDS011;33280;52.152;21.052;2023-07-30T21:05:32;7.87;;;5.20;;
47539;SDS011;33280;52.152;21.052;2023-07-30T21:07:59;6.30;;;4.87;;
47539;SDS011;33280;52.152;21.052;2023-07-30T21:10:27;7.53;;;5.00;;
47539;SDS011;33280;52.152;21.052;2023-07-30T21:12:54;5.50;;;4.57;;
47539;SDS011;33280;52.152;21.052;2023-07-30T21:15:21;8.63;;;5.20;;
47539;SDS011;33280;52.152;21.052;2023-07-30T21:17:49;8.20;;;4.83;;
47539;SDS011;33280;52.152;21.052;2023-07-30T21:20:16;8.40;;;5.00;;
47539;SDS011;33280;52.152;21.052;2023-07-30T21:22:43;6.23;;;5.00;;
47539;SDS011;33280;52.152;21.052;2023-07-30T21:25:11;6.17;;;4.93;;
47539;SDS011;33280;52.152;21.052;2023-07-30T21:27:38;7.97;;;5.20;;
